createdAt,value
2019-05-20T00:00:03.766Z,17.43
2019-05-20T00:02:32.149Z,19.43
2019-05-20T00:05:00.532Z,17.43
2019-05-20T00:07:28.902Z,18.07
2019-05-20T00:09:57.334Z,17.13
2019-05-20T00:12:25.723Z,17.70
2019-05-20T00:14:54.072Z,19.03
2019-05-20T00:17:22.445Z,19.77
2019-05-20T00:19:50.926Z,18.57
2019-05-20T00:22:19.475Z,17.93
2019-05-20T00:24:47.839Z,17.43
2019-05-20T00:27:16.266Z,17.07
2019-05-20T00:29:44.774Z,18.67
2019-05-20T00:32:13.127Z,18.53
2019-05-20T00:34:41.500Z,20.57
2019-05-20T00:37:10.034Z,20.27
2019-05-20T00:39:38.498Z,21.37
2019-05-20T00:42:06.923Z,19.47
2019-05-20T00:44:35.302Z,20.87
2019-05-20T00:47:03.780Z,20.60
2019-05-20T00:49:32.151Z,21.77
2019-05-20T00:52:00.607Z,20.30
2019-05-20T00:54:29.039Z,20.97
2019-05-20T00:56:57.403Z,21.30
2019-05-20T00:59:25.860Z,22.63
2019-05-20T01:01:54.392Z,20.73
2019-05-20T01:04:22.920Z,21.87
2019-05-20T01:06:51.387Z,22.47
2019-05-20T01:09:19.758Z,21.23
2019-05-20T01:11:48.251Z,22.83
2019-05-20T01:14:16.615Z,25.27
2019-05-20T01:16:45.142Z,23.67
2019-05-20T01:19:13.596Z,24.63
2019-05-20T01:21:42.014Z,27.87
2019-05-20T01:24:10.493Z,27.80
2019-05-20T01:26:38.846Z,27.50
2019-05-20T01:29:07.330Z,26.87
2019-05-20T01:31:35.780Z,27.93
2019-05-20T01:34:04.282Z,27.90
2019-05-20T01:36:32.673Z,30.57
2019-05-20T01:39:01.098Z,27.87
2019-05-20T01:41:29.580Z,29.87
2019-05-20T01:43:57.951Z,27.97
2019-05-20T01:46:26.410Z,27.43
2019-05-20T01:48:54.854Z,27.97
2019-05-20T01:51:23.324Z,26.97
2019-05-20T01:53:51.702Z,27.80
2019-05-20T01:56:20.075Z,27.70
2019-05-20T01:58:48.443Z,27.97
2019-05-20T02:01:16.850Z,26.93
2019-05-20T02:03:45.347Z,28.13
2019-05-20T02:06:13.790Z,27.23
2019-05-20T02:08:42.406Z,26.20
2019-05-20T02:11:10.847Z,28.50
2019-05-20T02:13:55.506Z,29.07
2019-05-20T02:16:24.343Z,28.33
2019-05-20T02:18:52.723Z,31.23
2019-05-20T02:21:21.112Z,31.40
2019-05-20T02:23:49.559Z,29.70
2019-05-20T02:26:17.970Z,31.87
2019-05-20T02:28:46.435Z,33.70
2019-05-20T02:31:14.811Z,31.83
2019-05-20T02:33:51.531Z,38.03
2019-05-20T02:36:13.318Z,36.73
2019-05-20T02:38:41.672Z,38.40
2019-05-20T02:41:10.123Z,40.70
2019-05-20T02:43:38.495Z,42.47
2019-05-20T02:46:06.937Z,43.60
2019-05-20T02:48:35.522Z,43.43
2019-05-20T02:51:03.979Z,46.83
2019-05-20T02:53:32.414Z,43.40
2019-05-20T02:56:00.902Z,42.77
2019-05-20T02:58:29.468Z,44.10
2019-05-20T03:00:57.935Z,40.77
2019-05-20T03:03:26.363Z,41.77
2019-05-20T03:05:54.806Z,40.90
2019-05-20T03:08:23.199Z,39.83
2019-05-20T03:10:51.615Z,43.07
2019-05-20T03:13:20.060Z,47.67
2019-05-20T03:15:48.575Z,48.63
2019-05-20T03:18:16.948Z,47.67
2019-05-20T03:21:04.777Z,53.10
2019-05-20T03:23:33.251Z,44.40
2019-05-20T03:26:01.727Z,53.67
2019-05-20T03:28:30.173Z,57.63
2019-05-20T03:30:58.654Z,59.63
2019-05-20T03:33:27.165Z,60.97
2019-05-20T03:35:55.724Z,59.63
2019-05-20T03:38:24.188Z,70.43
2019-05-20T03:40:52.585Z,71.70
2019-05-20T03:43:21.076Z,77.23
2019-05-20T03:45:49.653Z,83.83
2019-05-20T03:48:18.279Z,85.87
2019-05-20T03:50:46.935Z,80.97
2019-05-20T03:53:15.426Z,88.00
2019-05-20T03:55:44.579Z,83.17
2019-05-20T03:58:13.984Z,93.70
2019-05-20T04:00:43.858Z,101.77
2019-05-20T04:03:12.901Z,80.37
2019-05-20T04:05:41.453Z,69.90
2019-05-20T04:08:09.917Z,91.87
2019-05-20T04:10:38.445Z,81.43
2019-05-20T04:13:06.948Z,87.93
2019-05-20T04:15:35.432Z,91.80
2019-05-20T04:18:03.903Z,91.87
2019-05-20T04:20:32.403Z,72.33
2019-05-20T04:23:00.911Z,82.27
2019-05-20T04:25:29.390Z,86.23
2019-05-20T04:27:57.908Z,95.30
2019-05-20T04:30:26.416Z,106.07
2019-05-20T04:32:54.966Z,100.73
2019-05-20T04:35:24.504Z,98.87
2019-05-20T04:37:53.182Z,120.33
2019-05-20T04:40:21.727Z,107.47
2019-05-20T04:42:50.206Z,124.57
2019-05-20T04:45:19.192Z,108.30
2019-05-20T04:47:47.895Z,95.50
2019-05-20T04:50:16.414Z,105.33
2019-05-20T04:52:44.895Z,129.10
2019-05-20T04:55:13.354Z,125.07
2019-05-20T04:57:41.797Z,122.63
2019-05-20T05:00:10.468Z,113.87
2019-05-20T05:02:42.937Z,131.10
2019-05-20T05:05:09.221Z,103.83
2019-05-20T05:07:37.715Z,88.93
2019-05-20T05:10:07.673Z,113.60
2019-05-20T05:12:36.140Z,124.83
2019-05-20T05:15:07.893Z,113.47
2019-05-20T05:17:35.588Z,114.57
2019-05-20T05:20:04.199Z,119.47
2019-05-20T05:22:32.654Z,119.60
2019-05-20T05:25:01.182Z,125.17
2019-05-20T05:27:29.612Z,122.27
2019-05-20T05:29:58.079Z,114.60
2019-05-20T05:32:54.944Z,111.37
2019-05-20T05:35:23.390Z,95.83
2019-05-20T05:37:51.969Z,128.30
2019-05-20T05:40:22.103Z,100.27
2019-05-20T05:42:50.579Z,98.40
2019-05-20T05:45:20.542Z,98.23
2019-05-20T05:47:48.957Z,119.97
2019-05-20T05:50:17.395Z,114.53
2019-05-20T05:52:46.271Z,120.30
2019-05-20T05:55:14.855Z,100.77
2019-05-20T05:57:43.235Z,103.67
2019-05-20T06:00:11.795Z,117.40
2019-05-20T06:02:40.381Z,101.13
2019-05-20T06:05:09.045Z,112.77
2019-05-20T06:07:37.714Z,108.13
2019-05-20T06:10:06.547Z,101.93
2019-05-20T06:12:35.310Z,100.37
2019-05-20T06:15:03.919Z,83.43
2019-05-20T06:17:32.340Z,88.90
2019-05-20T06:20:00.746Z,90.63
2019-05-20T06:22:29.363Z,90.90
2019-05-20T06:25:00.288Z,99.50
2019-05-20T06:27:28.755Z,93.43
2019-05-20T06:29:57.205Z,111.60
2019-05-20T06:32:25.671Z,97.03
2019-05-20T06:34:54.111Z,100.77
2019-05-20T06:37:24.561Z,107.20
2019-05-20T06:39:53.003Z,95.63
2019-05-20T06:42:21.458Z,85.63
2019-05-20T06:44:53.152Z,95.97
2019-05-20T06:47:20.081Z,91.07
2019-05-20T06:49:48.566Z,86.83
2019-05-20T06:52:16.934Z,90.73
2019-05-20T06:54:45.374Z,87.80
2019-05-20T06:57:13.750Z,93.07
2019-05-20T06:59:42.251Z,91.30
2019-05-20T07:02:10.766Z,90.43
2019-05-20T07:04:39.208Z,86.87
2019-05-20T07:07:20.389Z,85.87
2019-05-20T07:09:37.879Z,85.83
2019-05-20T07:12:06.367Z,81.90
2019-05-20T07:14:34.824Z,88.30
2019-05-20T07:17:03.334Z,94.60
2019-05-20T07:19:31.766Z,78.10
2019-05-20T07:22:00.159Z,86.60
2019-05-20T07:24:28.594Z,88.10
2019-05-20T07:26:57.049Z,82.37
2019-05-20T07:29:25.419Z,87.27
2019-05-20T07:31:53.797Z,84.03
2019-05-20T07:34:22.267Z,83.07
2019-05-20T07:37:02.762Z,80.03
2019-05-20T07:39:20.834Z,80.63
2019-05-20T07:41:49.331Z,80.20
2019-05-20T07:44:17.763Z,90.53
2019-05-20T07:46:46.317Z,84.83
2019-05-20T07:49:15.178Z,84.57
2019-05-20T07:51:44.414Z,82.37
2019-05-20T07:54:13.916Z,82.77
2019-05-20T07:56:43.860Z,84.67
2019-05-20T07:59:13.907Z,85.97
2019-05-20T08:01:42.384Z,86.87
2019-05-20T08:04:10.844Z,84.87
2019-05-20T08:06:39.288Z,87.47
2019-05-20T08:09:07.863Z,79.97
2019-05-20T08:11:36.419Z,79.60
2019-05-20T08:14:04.891Z,74.40
2019-05-20T08:16:33.350Z,79.33
2019-05-20T08:19:01.819Z,75.87
2019-05-20T08:21:30.252Z,73.03
2019-05-20T08:23:58.710Z,80.17
2019-05-20T08:26:27.228Z,77.80
2019-05-20T08:28:55.864Z,80.17
2019-05-20T08:31:24.397Z,75.00
2019-05-20T08:33:52.795Z,72.43
2019-05-20T08:36:21.323Z,77.60
2019-05-20T08:38:49.774Z,78.73
2019-05-20T08:41:18.567Z,76.57
2019-05-20T08:43:47.135Z,80.17
2019-05-20T08:46:15.654Z,74.97
2019-05-20T08:48:44.178Z,70.30
2019-05-20T08:51:12.739Z,69.13
2019-05-20T08:53:41.280Z,66.77
2019-05-20T08:56:09.864Z,69.90
2019-05-20T08:58:38.378Z,69.43
2019-05-20T09:01:07.567Z,62.93
2019-05-20T09:03:37.619Z,65.37
2019-05-20T09:06:06.097Z,54.30
2019-05-20T09:08:34.544Z,52.83
2019-05-20T09:11:02.929Z,51.40
2019-05-20T09:13:31.373Z,48.33
2019-05-20T09:15:59.853Z,49.43
2019-05-20T09:18:28.321Z,53.60
2019-05-20T09:20:56.851Z,46.00
2019-05-20T09:23:25.370Z,49.97
2019-05-20T09:25:53.882Z,50.60
2019-05-20T09:28:22.349Z,53.43
2019-05-20T09:30:51.012Z,49.40
2019-05-20T09:33:19.555Z,56.13
2019-05-20T09:35:48.148Z,54.40
2019-05-20T09:38:20.748Z,51.73
2019-05-20T09:40:47.343Z,54.37
2019-05-20T09:43:15.954Z,59.03
2019-05-20T09:45:44.503Z,54.30
2019-05-20T09:48:13.045Z,55.97
2019-05-20T09:50:41.506Z,56.33
2019-05-20T09:53:10.065Z,57.73
2019-05-20T09:55:38.893Z,55.73
2019-05-20T09:58:07.384Z,54.27
2019-05-20T10:00:35.852Z,54.50
2019-05-20T10:03:05.155Z,52.93
2019-05-20T10:05:37.139Z,49.47
2019-05-20T10:08:04.653Z,52.57
2019-05-20T10:10:33.158Z,49.07
2019-05-20T10:13:01.874Z,53.27
2019-05-20T10:15:30.482Z,51.23
2019-05-20T10:17:58.955Z,52.80
2019-05-20T10:20:27.515Z,47.83
2019-05-20T10:22:56.138Z,49.90
2019-05-20T10:25:24.848Z,50.40
2019-05-20T10:27:57.344Z,47.80
2019-05-20T10:30:23.595Z,48.30
2019-05-20T10:32:52.089Z,45.70
2019-05-20T10:35:20.557Z,44.67
2019-05-20T10:37:49.008Z,52.37
2019-05-20T10:40:17.504Z,48.73
2019-05-20T10:42:45.895Z,43.20
2019-05-20T10:45:14.434Z,43.03
2019-05-20T10:47:42.880Z,43.83
2019-05-20T10:50:13.254Z,46.13
2019-05-20T10:52:41.717Z,44.23
2019-05-20T10:55:10.152Z,42.27
2019-05-20T10:57:38.644Z,40.03
2019-05-20T11:00:07.883Z,42.57
2019-05-20T11:02:36.349Z,40.43
2019-05-20T11:05:04.842Z,39.27
2019-05-20T11:07:33.387Z,38.77
2019-05-20T11:10:01.819Z,39.40
2019-05-20T11:12:30.221Z,36.83
2019-05-20T11:14:58.658Z,40.60
2019-05-20T11:17:27.127Z,39.87
2019-05-20T11:19:55.642Z,41.63
2019-05-20T11:22:24.002Z,39.67
2019-05-20T11:24:52.467Z,37.77
2019-05-20T11:27:20.920Z,42.17
2019-05-20T11:29:49.358Z,38.17
2019-05-20T11:32:18.968Z,38.43
2019-05-20T11:34:47.604Z,41.37
2019-05-20T11:37:16.158Z,40.87
2019-05-20T11:39:44.520Z,43.33
2019-05-20T11:42:12.977Z,42.63
2019-05-20T11:44:41.451Z,42.23
2019-05-20T11:47:09.922Z,42.20
2019-05-20T11:49:38.401Z,39.20
2019-05-20T11:52:07.067Z,43.37
2019-05-20T11:54:35.679Z,43.23
2019-05-20T11:57:04.321Z,41.33
2019-05-20T11:59:32.684Z,40.07
2019-05-20T12:02:03.932Z,44.00
2019-05-20T12:04:31.238Z,41.23
2019-05-20T12:06:59.820Z,40.63
2019-05-20T12:09:28.266Z,40.33
2019-05-20T12:12:06.798Z,43.63
2019-05-20T12:15:27.897Z,41.70
2019-05-20T12:17:29.694Z,42.20
2019-05-20T12:20:07.769Z,43.20
2019-05-20T12:22:37.210Z,42.40
2019-05-20T12:25:07.868Z,43.10
2019-05-20T12:27:36.300Z,42.10
2019-05-20T12:30:06.091Z,42.07
2019-05-20T12:32:34.676Z,43.17
2019-05-20T12:35:03.231Z,46.83
2019-05-20T12:37:31.816Z,41.63
2019-05-20T12:40:07.013Z,43.20
2019-05-20T12:42:30.627Z,43.63
2019-05-20T12:44:59.067Z,42.83
2019-05-20T12:47:27.457Z,40.73
2019-05-20T12:49:56.034Z,44.60
2019-05-20T12:52:24.565Z,42.43
2019-05-20T12:55:07.038Z,43.83
2019-05-20T12:57:23.356Z,45.07
2019-05-20T12:59:51.885Z,45.07
2019-05-20T13:02:20.294Z,45.13
2019-05-20T13:04:48.883Z,45.13
2019-05-20T13:07:17.514Z,40.50
2019-05-20T13:09:46.034Z,40.27
2019-05-20T13:12:14.567Z,44.23
2019-05-20T13:14:42.983Z,42.20
2019-05-20T13:17:11.675Z,43.73
2019-05-20T13:19:40.218Z,40.97
2019-05-20T13:22:08.791Z,44.33
2019-05-20T13:24:37.281Z,42.47
2019-05-20T13:27:05.877Z,44.57
2019-05-20T13:29:34.377Z,43.50
2019-05-20T13:32:03.196Z,45.70
2019-05-20T13:34:31.694Z,39.73
2019-05-20T13:37:00.814Z,43.10
2019-05-20T13:39:29.305Z,38.97
2019-05-20T13:41:57.873Z,45.43
2019-05-20T13:44:26.345Z,42.33
2019-05-20T13:46:54.833Z,38.47
2019-05-20T13:49:23.358Z,37.33
2019-05-20T13:51:51.821Z,40.00
2019-05-20T13:54:20.491Z,40.77
2019-05-20T13:56:49.040Z,39.13
2019-05-20T13:59:17.541Z,41.63
2019-05-20T14:01:46.066Z,42.33
2019-05-20T14:04:14.590Z,43.00
2019-05-20T14:06:43.077Z,39.10
2019-05-20T14:09:11.555Z,41.40
2019-05-20T14:11:39.987Z,39.50
2019-05-20T14:14:08.618Z,41.00
2019-05-20T14:16:37.251Z,40.93
2019-05-20T14:19:05.735Z,40.63
2019-05-20T14:21:34.265Z,42.60
2019-05-20T14:24:02.796Z,39.00
2019-05-20T14:26:31.310Z,39.33
2019-05-20T14:28:59.811Z,40.77
2019-05-20T14:31:28.228Z,39.70
2019-05-20T14:33:56.636Z,42.63
2019-05-20T14:36:39.514Z,37.60
2019-05-20T14:38:55.506Z,40.80
2019-05-20T14:41:24.022Z,38.47
2019-05-20T14:43:52.539Z,36.23
2019-05-20T14:46:21.024Z,38.67
2019-05-20T14:48:49.491Z,40.07
2019-05-20T14:51:17.960Z,43.03
2019-05-20T14:53:46.392Z,43.27
2019-05-20T14:56:14.808Z,47.67
2019-05-20T14:58:43.314Z,48.30
2019-05-20T15:01:11.812Z,49.13
2019-05-20T15:03:40.283Z,47.43
2019-05-20T15:06:08.851Z,48.20
2019-05-20T15:08:37.340Z,47.10
2019-05-20T15:11:05.837Z,48.70
2019-05-20T15:13:34.332Z,45.13
2019-05-20T15:16:02.841Z,45.87
2019-05-20T15:18:31.387Z,49.13
2019-05-20T15:20:59.902Z,49.20
2019-05-20T15:23:28.408Z,48.47
2019-05-20T15:25:56.963Z,45.27
2019-05-20T15:28:25.447Z,47.03
2019-05-20T15:30:54.030Z,44.33
2019-05-20T15:33:22.480Z,43.90
2019-05-20T15:35:50.995Z,47.27
2019-05-20T15:38:19.534Z,47.27
2019-05-20T15:40:47.940Z,47.73
2019-05-20T15:43:16.434Z,40.13
2019-05-20T15:45:44.942Z,43.37
2019-05-20T15:48:13.441Z,42.10
2019-05-20T15:50:42.596Z,40.57
2019-05-20T15:53:12.457Z,41.90
2019-05-20T15:55:41.282Z,38.83
2019-05-20T15:58:09.792Z,39.03
2019-05-20T16:00:38.325Z,40.90
2019-05-20T16:03:06.811Z,40.90
2019-05-20T16:05:37.289Z,43.43
2019-05-20T16:08:05.772Z,40.27
2019-05-20T16:10:34.348Z,37.17
2019-05-20T16:13:02.800Z,41.30
2019-05-20T16:15:31.234Z,45.00
2019-05-20T16:17:59.770Z,41.80
2019-05-20T16:20:28.255Z,37.13
2019-05-20T16:22:56.858Z,38.50
2019-05-20T16:25:25.315Z,40.00
2019-05-20T16:27:53.818Z,40.50
2019-05-20T16:30:22.436Z,42.47
2019-05-20T16:32:50.890Z,39.17
2019-05-20T16:35:19.356Z,38.60
2019-05-20T16:37:47.807Z,39.90
2019-05-20T16:40:16.608Z,38.30
2019-05-20T16:42:45.076Z,39.47
2019-05-20T16:45:13.557Z,42.50
2019-05-20T16:47:42.088Z,38.90
2019-05-20T16:50:10.773Z,39.83
2019-05-20T16:52:39.315Z,40.07
2019-05-20T16:55:08.225Z,42.73
2019-05-20T16:57:36.758Z,45.20
2019-05-20T17:00:14.723Z,40.77
2019-05-20T17:02:36.668Z,43.03
2019-05-20T17:05:05.894Z,40.10
2019-05-20T17:07:34.400Z,42.77
2019-05-20T17:10:03.072Z,41.53
2019-05-20T17:12:31.475Z,44.37
2019-05-20T17:14:59.887Z,40.33
2019-05-20T17:17:28.455Z,43.30
2019-05-20T17:19:56.935Z,44.37
2019-05-20T17:22:25.420Z,45.20
2019-05-20T17:24:53.852Z,47.57
2019-05-20T17:27:22.319Z,46.67
2019-05-20T17:29:50.795Z,45.10
2019-05-20T17:32:19.256Z,44.27
2019-05-20T17:34:47.714Z,42.90
2019-05-20T17:37:16.328Z,40.90
2019-05-20T17:39:44.800Z,45.97
2019-05-20T17:42:14.138Z,52.20
2019-05-20T17:44:42.640Z,48.13
2019-05-20T17:47:12.990Z,46.50
2019-05-20T17:49:41.445Z,44.20
2019-05-20T17:52:09.933Z,43.50
2019-05-20T17:54:38.382Z,43.90
2019-05-20T17:57:06.848Z,53.17
2019-05-20T17:59:35.337Z,46.13
2019-05-20T18:02:05.460Z,50.67
2019-05-20T18:04:34.285Z,47.30
2019-05-20T18:07:02.764Z,54.07
2019-05-20T18:09:32.911Z,49.03
2019-05-20T18:12:01.408Z,49.37
2019-05-20T18:14:29.787Z,46.80
2019-05-20T18:16:58.355Z,46.10
2019-05-20T18:19:26.851Z,45.87
2019-05-20T18:21:55.259Z,46.43
2019-05-20T18:24:23.658Z,46.00
2019-05-20T18:26:52.164Z,49.87
2019-05-20T18:29:20.764Z,44.63
2019-05-20T18:31:49.236Z,49.23
2019-05-20T18:34:17.738Z,49.20
2019-05-20T18:36:46.148Z,49.57
2019-05-20T18:39:14.933Z,49.20
2019-05-20T18:41:43.402Z,50.23
2019-05-20T18:44:13.347Z,49.90
2019-05-20T18:46:41.941Z,49.30
2019-05-20T18:49:10.487Z,49.00
2019-05-20T18:51:40.018Z,49.00
2019-05-20T18:54:08.452Z,50.50
2019-05-20T18:56:36.934Z,49.53
2019-05-20T18:59:05.483Z,49.93
2019-05-20T19:01:46.110Z,54.50
2019-05-20T19:04:04.283Z,51.30
2019-05-20T19:06:32.689Z,52.60
2019-05-20T19:09:01.841Z,55.30
2019-05-20T19:11:30.389Z,49.17
2019-05-20T19:13:59.184Z,51.70
2019-05-20T19:16:27.828Z,50.47
2019-05-20T19:18:56.348Z,48.27
2019-05-20T19:21:24.868Z,53.97
2019-05-20T19:23:53.492Z,54.53
2019-05-20T19:26:24.894Z,51.17
2019-05-20T19:28:52.258Z,49.63
2019-05-20T19:31:20.748Z,51.60
2019-05-20T19:33:49.442Z,49.77
2019-05-20T19:36:18.048Z,55.37
2019-05-20T19:38:46.741Z,54.07
2019-05-20T19:41:18.636Z,55.77
2019-05-20T19:43:47.244Z,52.17
2019-05-20T19:46:15.761Z,57.40
2019-05-20T19:48:44.298Z,53.27
2019-05-20T19:51:12.912Z,52.93
2019-05-20T19:53:41.407Z,53.40
2019-05-20T19:56:10.004Z,55.13
2019-05-20T19:58:38.635Z,52.17
2019-05-20T20:01:07.246Z,54.23
2019-05-20T20:03:35.719Z,52.30
2019-05-20T20:06:05.209Z,59.90
2019-05-20T20:08:33.685Z,53.50
2019-05-20T20:11:02.217Z,54.00
2019-05-20T20:13:33.927Z,54.53
2019-05-20T20:16:00.880Z,52.23
2019-05-20T20:18:29.385Z,53.50
2019-05-20T20:20:57.856Z,55.73
2019-05-20T20:23:26.362Z,53.97
2019-05-20T20:25:55.030Z,54.13
2019-05-20T20:28:27.219Z,53.43
2019-05-20T20:30:56.026Z,48.97
2019-05-20T20:33:24.936Z,50.73
2019-05-20T20:35:59.780Z,49.60
2019-05-20T20:38:28.772Z,54.63
2019-05-20T20:40:57.243Z,47.47
2019-05-20T20:43:25.765Z,48.53
2019-05-20T20:45:54.270Z,50.30
2019-05-20T20:48:22.826Z,53.63
2019-05-20T20:50:51.382Z,52.20
2019-05-20T20:53:19.896Z,50.13
2019-05-20T20:55:50.508Z,47.90
2019-05-20T20:58:18.946Z,49.33
2019-05-20T21:00:47.408Z,48.77
2019-05-20T21:03:15.918Z,45.93
2019-05-20T21:05:44.427Z,46.40
2019-05-20T21:08:12.855Z,45.77
2019-05-20T21:10:41.319Z,44.90
2019-05-20T21:13:09.852Z,43.97
2019-05-20T21:15:38.385Z,47.33
2019-05-20T21:18:06.833Z,44.40
2019-05-20T21:20:35.360Z,46.50
2019-05-20T21:23:03.878Z,44.23
2019-05-20T21:25:32.275Z,48.63
2019-05-20T21:28:01.049Z,43.57
2019-05-20T21:30:29.429Z,46.07
2019-05-20T21:33:08.962Z,47.00
2019-05-20T21:35:28.263Z,47.10
2019-05-20T21:37:56.746Z,43.03
2019-05-20T21:40:25.271Z,41.47
2019-05-20T21:42:53.724Z,44.50
2019-05-20T21:45:22.198Z,46.80
2019-05-20T21:47:50.610Z,50.70
2019-05-20T21:50:19.148Z,52.43
2019-05-20T21:52:47.591Z,45.97
2019-05-20T21:55:15.972Z,46.00
2019-05-20T21:57:44.396Z,49.57
2019-05-20T22:00:15.841Z,47.87
2019-05-20T22:02:59.288Z,47.17
2019-05-20T22:05:27.776Z,48.70
2019-05-20T22:07:56.444Z,46.97
2019-05-20T22:10:25.246Z,48.17
2019-05-20T22:12:53.695Z,48.73
2019-05-20T22:15:22.092Z,47.63
2019-05-20T22:17:50.495Z,53.70
2019-05-20T22:20:18.979Z,50.47
2019-05-20T22:23:09.595Z,51.57
2019-05-20T22:25:37.980Z,51.57
2019-05-20T22:28:06.501Z,53.43
2019-05-20T22:30:34.971Z,52.20
2019-05-20T22:33:03.429Z,54.70
2019-05-20T22:35:31.949Z,50.97
2019-05-20T22:38:00.426Z,54.70
2019-05-20T22:40:28.873Z,55.37
2019-05-20T22:42:57.531Z,54.33
2019-05-20T22:45:26.007Z,52.13
2019-05-20T22:47:54.459Z,56.47
2019-05-20T22:50:22.951Z,51.53
2019-05-20T22:52:51.425Z,58.30
2019-05-20T22:55:26.300Z,55.00
2019-05-20T22:57:54.709Z,58.33
2019-05-20T23:00:23.179Z,54.47
2019-05-20T23:02:51.668Z,56.73
2019-05-20T23:05:20.143Z,55.17
2019-05-20T23:07:48.545Z,61.73
2019-05-20T23:10:17.148Z,58.07
2019-05-20T23:12:45.551Z,63.47
2019-05-20T23:15:14.160Z,60.83
2019-05-20T23:17:42.593Z,63.27
2019-05-20T23:20:11.035Z,62.57
2019-05-20T23:22:39.437Z,62.77
2019-05-20T23:25:07.969Z,59.60
2019-05-20T23:27:36.550Z,64.87
2019-05-20T23:30:05.396Z,61.17
2019-05-20T23:32:33.956Z,66.60
2019-05-20T23:35:02.517Z,69.63
2019-05-20T23:37:31.030Z,65.60
2019-05-20T23:39:59.607Z,61.57
2019-05-20T23:42:28.088Z,65.97
2019-05-20T23:44:56.496Z,69.27
2019-05-20T23:47:25.128Z,78.87
2019-05-20T23:49:53.641Z,72.20
2019-05-20T23:52:22.169Z,79.27
2019-05-20T23:54:51.112Z,79.50
2019-05-20T23:57:19.700Z,86.87
2019-05-20T23:59:48.152Z,83.87
